Time;durP1;ratioP1;P1;durP2;ratioP2;P2;SDS_P1;SDS_P2;PMS_P1;PMS_P2;Temp;Humidity;BMP_temperature;BMP_pressure;BME280_temperature;BME280_humidity;BME280_pressure;Samples;Min_cycle;Max_cycle;Signal;HPM_P1;HPM_P2
2022/10/15 00:00:21;;;;;;;26.90;13.75;;;;;;;9.90;59.00;100610.19;5014336;28;20031;-70
2022/10/15 00:02:47;;;;;;;28.48;13.35;;;;;;;9.94;58.96;100614.34;5027596;28;20128;-70
2022/10/15 00:05:12;;;;;;;28.90;13.15;;;;;;;9.97;58.94;100608.16;5031570;28;20029;-69
2022/10/15 00:07:40;;;;;;;27.85;14.65;;;;;;;10.00;59.13;100611.47;5035764;28;20418;-69
2022/10/15 00:10:05;;;;;;;26.50;14.63;;;;;;;10.01;58.91;100607.09;5014448;28;20041;-69
2022/10/15 00:12:31;;;;;;;28.83;13.55;;;;;;;9.98;59.51;100608.09;5031323;28;20468;-69
2022/10/15 00:14:56;;;;;;;30.92;15.43;;;;;;;10.01;59.18;100602.75;5028378;28;20426;-69
2022/10/15 00:17:22;;;;;;;28.73;13.07;;;;;;;10.00;58.74;100603.66;5025756;28;20033;-70
2022/10/15 00:19:47;;;;;;;29.27;14.13;;;;;;;9.99;58.71;100598.47;5031100;28;20033;-70
2022/10/15 00:22:13;;;;;;;25.05;13.27;;;;;;;9.80;59.09;100601.84;5027522;28;20083;-69
2022/10/15 00:24:38;;;;;;;22.13;13.63;;;;;;;9.77;58.77;100599.34;5027087;28;20025;-70
2022/10/15 00:27:03;;;;;;;27.30;13.55;;;;;;;9.65;59.57;100605.06;5028924;28;20436;-71
2022/10/15 00:29:29;;;;;;;27.63;13.40;;;;;;;9.73;59.04;100603.00;5027987;28;20557;-69
2022/10/15 00:31:54;;;;;;;27.73;13.48;;;;;;;9.73;58.56;100604.75;5031584;28;20042;-70
2022/10/15 00:34:20;;;;;;;24.92;12.13;;;;;;;9.69;58.59;100606.63;5029263;28;20819;-70
2022/10/15 00:36:48;;;;;;;24.42;13.88;;;;;;;9.51;59.22;100605.63;5031088;28;20035;-71
2022/10/15 00:39:13;;;;;;;29.23;12.27;;;;;;;9.51;59.36;100600.41;5031385;28;20056;-70
2022/10/15 00:41:42;;;;;;;26.13;12.77;;;;;;;9.54;58.78;100608.13;5027493;28;20045;-70
2022/10/15 00:44:20;;;;;;;27.45;12.45;;;;;;;9.48;58.89;100612.75;5029039;28;20301;-69
2022/10/15 00:46:50;;;;;;;27.70;13.07;;;;;;;9.41;58.81;100612.13;5028941;28;20033;-70
2022/10/15 00:49:27;;;;;;;27.75;12.85;;;;;;;9.22;60.24;100611.97;5026634;28;20509;-70
2022/10/15 00:52:00;;;;;;;26.33;12.50;;;;;;;9.38;59.82;100618.28;5025235;28;20037;-70
2022/10/15 00:54:30;;;;;;;27.58;14.02;;;;;;;9.27;60.61;100611.78;5030023;28;20021;-70
2022/10/15 00:56:56;;;;;;;22.90;12.35;;;;;;;9.35;59.64;100612.38;5027282;28;20033;-69
2022/10/15 00:59:25;;;;;;;28.67;13.65;;;;;;;9.39;59.53;100609.56;5018717;28;20021;-70
2022/10/15 01:01:52;;;;;;;35.05;14.75;;;;;;;9.37;59.25;100608.78;5028382;28;20025;-70
2022/10/15 01:04:17;;;;;;;29.08;13.80;;;;;;;9.32;59.38;100608.13;5028095;28;20040;-70
2022/10/15 01:06:44;;;;;;;22.95;12.55;;;;;;;9.34;59.43;100608.03;5025777;28;20033;-70
2022/10/15 01:09:11;;;;;;;30.80;14.75;;;;;;;9.34;59.47;100600.22;5030189;28;20128;-71
2022/10/15 01:11:42;;;;;;;30.75;14.85;;;;;;;9.16;60.41;100607.00;5027097;28;20061;-69
2022/10/15 01:14:31;;;;;;;35.05;17.27;;;;;;;9.38;59.67;100600.03;5026578;28;20045;-70
2022/10/15 01:17:15;;;;;;;30.63;15.45;;;;;;;9.29;59.80;100597.78;5035238;28;20323;-69
2022/10/15 01:20:19;;;;;;;32.60;15.30;;;;;;;9.35;59.52;100592.34;5019120;28;20593;-70
2022/10/15 01:23:32;;;;;;;33.90;15.07;;;;;;;9.26;59.71;100592.69;5024994;28;20409;-70
2022/10/15 01:26:15;;;;;;;36.90;16.52;;;;;;;8.84;61.61;100596.03;4961175;28;20515;-70
2022/10/15 01:29:12;;;;;;;37.38;16.60;;;;;;;9.30;59.95;100599.50;5034817;28;20072;-69
2022/10/15 01:32:01;;;;;;;36.95;16.20;;;;;;;9.33;60.23;100595.91;5025695;28;20508;-69
2022/10/15 01:34:41;;;;;;;35.10;16.67;;;;;;;9.35;59.89;100592.34;5029550;28;20025;-69
2022/10/15 01:37:18;;;;;;;42.55;17.75;;;;;;;9.22;60.77;100587.66;5030055;28;20045;-69
2022/10/15 01:39:53;;;;;;;32.85;16.50;;;;;;;9.26;60.47;100584.88;5030614;28;20284;-69
2022/10/15 01:42:26;;;;;;;36.60;17.58;;;;;;;9.34;60.06;100577.59;5028589;28;20358;-69
2022/10/15 01:44:59;;;;;;;39.47;17.38;;;;;;;9.26;60.44;100571.00;5031651;28;20076;-69
2022/10/15 01:48:02;;;;;;;43.55;17.05;;;;;;;9.30;60.25;100575.19;5003556;28;20045;-69
2022/10/15 01:50:30;;;;;;;46.28;17.48;;;;;;;9.24;60.88;100578.88;5028814;28;20115;-70
2022/10/15 01:52:59;;;;;;;39.15;18.52;;;;;;;9.24;60.78;100578.88;5038392;28;20033;-69
2022/10/15 01:55:25;;;;;;;49.28;20.02;;;;;;;9.33;60.13;100573.28;5037066;28;20067;-69
2022/10/15 01:57:54;;;;;;;39.25;17.30;;;;;;;9.42;59.82;100571.22;5031576;28;20041;-69
2022/10/15 02:00:19;;;;;;;39.42;18.30;;;;;;;9.35;60.08;100561.03;5014542;28;20052;-69
2022/10/15 02:02:45;;;;;;;36.70;18.73;;;;;;;9.36;59.62;100564.50;5038295;28;20045;-70
2022/10/15 02:05:23;;;;;;;40.33;18.17;;;;;;;9.34;59.67;100566.31;5033260;28;20071;-69
2022/10/15 02:08:03;;;;;;;44.93;20.63;;;;;;;9.01;60.89;100563.25;5028607;28;20056;-69
2022/10/15 02:10:52;;;;;;;44.30;19.42;;;;;;;9.28;59.97;100567.41;5027142;28;20317;-69
2022/10/15 02:13:32;;;;;;;37.92;18.20;;;;;;;9.22;59.96;100559.81;5037688;28;20045;-70
2022/10/15 02:16:22;;;;;;;40.15;18.85;;;;;;;9.32;60.19;100563.78;5033339;28;20044;-69
2022/10/15 02:19:10;;;;;;;45.05;20.20;;;;;;;9.43;60.59;100552.06;5030498;28;20549;-69
2022/10/15 02:21:56;;;;;;;46.80;20.35;;;;;;;9.55;60.68;100544.59;5039536;28;20091;-69
2022/10/15 02:24:31;;;;;;;43.58;19.95;;;;;;;9.53;60.74;100553.38;5028498;28;21552;-69
2022/10/15 02:27:00;;;;;;;41.92;19.67;;;;;;;9.66;60.13;100554.59;5016066;28;20053;-69
2022/10/15 02:29:30;;;;;;;37.42;18.75;;;;;;;9.72;59.62;100543.03;5030325;28;20086;-69
2022/10/15 02:31:59;;;;;;;39.78;19.73;;;;;;;9.65;59.50;100541.59;5030438;28;20033;-69
2022/10/15 02:34:28;;;;;;;42.28;19.65;;;;;;;9.54;59.89;100542.03;5030167;28;20025;-69
2022/10/15 02:37:01;;;;;;;43.78;19.25;;;;;;;9.61;59.27;100543.50;5030792;28;20045;-69
2022/10/15 02:39:27;;;;;;;47.60;22.20;;;;;;;9.49;59.98;100543.97;5032416;28;20060;-69
2022/10/15 02:41:54;;;;;;;43.20;20.13;;;;;;;9.53;60.24;100543.78;5015900;28;20075;-69
2022/10/15 02:44:20;;;;;;;48.95;20.67;;;;;;;9.43;60.65;100542.47;5027061;28;20387;-69
2022/10/15 02:46:46;;;;;;;44.88;22.58;;;;;;;9.53;60.32;100541.19;5020343;28;20221;-69
2022/10/15 02:49:13;;;;;;;43.65;20.58;;;;;;;9.67;59.62;100535.38;5034615;28;20610;-69
2022/10/15 02:51:39;;;;;;;43.60;21.20;;;;;;;9.66;59.79;100536.31;5028915;28;21600;-69
2022/10/15 02:54:06;;;;;;;45.75;19.75;;;;;;;9.44;60.06;100543.34;5034459;28;20124;-69
2022/10/15 02:56:32;;;;;;;40.40;20.33;;;;;;;9.54;59.51;100539.41;5015771;28;20064;-68
2022/10/15 02:58:58;;;;;;;50.08;20.17;;;;;;;9.50;59.83;100535.22;5030897;28;20529;-69
2022/10/15 03:01:24;;;;;;;37.15;19.38;;;;;;;9.49;59.71;100534.38;5028726;28;20036;-70
2022/10/15 03:03:49;;;;;;;44.17;21.40;;;;;;;9.34;60.25;100533.28;5029644;28;20136;-68
2022/10/15 03:06:15;;;;;;;39.30;20.88;;;;;;;9.38;59.70;100528.75;5027557;28;20487;-69
2022/10/15 03:08:41;;;;;;;41.10;20.42;;;;;;;9.42;59.62;100534.72;5034259;28;20132;-69
2022/10/15 03:11:08;;;;;;;41.47;21.10;;;;;;;9.11;60.61;100535.94;5029785;28;20458;-69
2022/10/15 03:13:35;;;;;;;50.72;22.33;;;;;;;9.39;59.98;100526.09;5012667;28;20033;-69
2022/10/15 03:16:04;;;;;;;38.85;19.45;;;;;;;9.37;60.06;100530.53;5030019;28;20222;-69
2022/10/15 03:18:30;;;;;;;43.58;20.27;;;;;;;9.44;60.23;100532.91;5011201;28;20036;-69
2022/10/15 03:20:57;;;;;;;48.60;22.85;;;;;;;9.28;60.57;100535.28;5014253;28;20079;-70
2022/10/15 03:23:23;;;;;;;47.05;21.30;;;;;;;9.48;60.10;100534.47;5028098;28;20097;-70
2022/10/15 03:25:55;;;;;;;45.25;21.75;;;;;;;9.58;59.74;100536.63;5027473;28;20029;-70
2022/10/15 03:28:21;;;;;;;44.08;20.92;;;;;;;9.64;59.58;100534.69;5026330;28;20132;-70
2022/10/15 03:30:47;;;;;;;35.90;19.67;;;;;;;9.66;59.64;100532.88;5034662;28;20490;-70
2022/10/15 03:33:13;;;;;;;50.15;23.23;;;;;;;9.66;59.65;100533.72;5028243;28;20182;-69
2022/10/15 03:35:39;;;;;;;45.25;19.95;;;;;;;9.68;59.46;100534.50;5026242;28;21410;-69
2022/10/15 03:38:06;;;;;;;44.42;22.70;;;;;;;9.71;59.72;100536.13;5034901;28;20053;-70
2022/10/15 03:40:32;;;;;;;45.80;21.85;;;;;;;9.75;59.48;100538.53;5030715;28;20506;-70
2022/10/15 03:43:10;;;;;;;47.65;21.98;;;;;;;9.76;59.50;100540.22;5025595;28;20044;-69
2022/10/15 03:45:36;;;;;;;43.95;21.05;;;;;;;9.76;59.40;100540.22;5027442;28;20083;-69
2022/10/15 03:48:18;;;;;;;45.58;21.25;;;;;;;9.79;59.59;100534.94;5028342;28;20063;-70
2022/10/15 03:50:47;;;;;;;49.95;23.00;;;;;;;9.74;59.70;100547.25;5027534;28;20124;-70
2022/10/15 03:53:13;;;;;;;37.95;20.50;;;;;;;9.85;59.53;100539.03;5029261;28;20442;-69
2022/10/15 03:55:39;;;;;;;43.55;19.95;;;;;;;9.94;59.52;100532.56;5027371;28;20040;-69
2022/10/15 03:58:04;;;;;;;46.72;21.88;;;;;;;9.92;59.45;100537.00;5015977;28;20048;-70
2022/10/15 04:00:30;;;;;;;46.00;22.05;;;;;;;10.00;59.46;100537.53;5036291;28;20132;-70
2022/10/15 04:02:59;;;;;;;40.50;21.98;;;;;;;10.08;59.50;100535.44;5017968;28;20130;-69
2022/10/15 04:05:27;;;;;;;47.25;22.73;;;;;;;10.00;59.64;100535.75;5027681;28;20129;-70
2022/10/15 04:08:05;;;;;;;52.25;24.17;;;;;;;10.09;59.46;100528.47;5026827;28;20037;-70
2022/10/15 04:10:34;;;;;;;46.13;22.23;;;;;;;10.12;59.56;100531.75;5029576;28;20033;-70
2022/10/15 04:12:59;;;;;;;42.80;22.10;;;;;;;10.23;59.43;100536.53;5028334;28;20037;-69
2022/10/15 04:15:26;;;;;;;45.55;22.08;;;;;;;10.24;59.30;100532.16;5019187;28;20032;-69
2022/10/15 04:17:56;;;;;;;43.47;22.20;;;;;;;10.24;59.27;100540.00;5035814;28;20078;-69
2022/10/15 04:20:24;;;;;;;45.88;22.00;;;;;;;10.18;59.37;100541.94;5029339;28;21280;-69
2022/10/15 04:22:50;;;;;;;44.30;22.50;;;;;;;10.10;59.80;100544.06;5030412;28;20045;-69
2022/10/15 04:25:16;;;;;;;49.35;22.92;;;;;;;10.12;59.55;100541.38;5035572;28;20048;-69
2022/10/15 04:27:42;;;;;;;42.80;21.27;;;;;;;10.28;59.51;100538.94;5010534;28;20045;-69
2022/10/15 04:30:11;;;;;;;45.10;21.80;;;;;;;10.28;59.37;100549.38;5019434;28;20558;-69
2022/10/15 04:32:41;;;;;;;53.67;25.30;;;;;;;10.22;59.45;100546.13;5027537;28;20364;-70
2022/10/15 04:35:07;;;;;;;43.28;22.42;;;;;;;10.26;59.30;100539.03;5031103;28;20052;-69
2022/10/15 04:37:51;;;;;;;46.03;22.77;;;;;;;10.32;59.00;100553.56;5028538;28;20336;-70
2022/10/15 04:40:17;;;;;;;47.90;23.20;;;;;;;10.29;59.19;100549.31;5026687;28;20072;-71
2022/10/15 04:42:43;;;;;;;47.67;23.05;;;;;;;10.39;59.15;100549.75;5027587;28;20048;-70
2022/10/15 04:45:09;;;;;;;48.72;22.60;;;;;;;10.45;59.08;100546.88;5011363;28;20425;-69
2022/10/15 04:47:36;;;;;;;54.65;24.05;;;;;;;10.44;58.91;100547.81;5033922;28;20566;-68
2022/10/15 04:50:07;;;;;;;52.95;24.10;;;;;;;10.39;59.13;100550.63;5013649;28;20065;-69
2022/10/15 04:52:53;;;;;;;57.05;25.63;;;;;;;10.42;59.06;100555.69;5015295;28;20086;-68
2022/10/15 04:55:19;;;;;;;45.85;23.77;;;;;;;10.37;59.10;100554.19;5011556;28;20041;-69
2022/10/15 04:57:44;;;;;;;46.35;23.55;;;;;;;10.35;59.18;100554.28;5033602;28;20105;-69
2022/10/15 05:00:11;;;;;;;52.92;24.98;;;;;;;10.30;59.67;100552.78;5012327;28;20332;-69
2022/10/15 05:03:07;;;;;;;49.25;24.02;;;;;;;10.29;59.46;100564.16;5034162;28;20076;-70
2022/10/15 05:06:04;;;;;;;66.07;27.80;;;;;;;10.20;59.68;100561.00;5035952;28;20266;-69
2022/10/15 05:08:32;;;;;;;49.25;25.15;;;;;;;10.41;59.20;100558.38;5025251;28;20053;-71
2022/10/15 05:11:25;;;;;;;53.13;26.30;;;;;;;10.28;59.37;100552.00;5035665;28;20041;-70
2022/10/15 05:13:54;;;;;;;54.17;25.40;;;;;;;10.31;59.43;100557.94;5030995;28;20510;-69
2022/10/15 05:16:22;;;;;;;58.53;24.42;;;;;;;10.34;59.13;100555.19;5017145;28;20068;-70
2022/10/15 05:18:53;;;;;;;62.80;27.33;;;;;;;10.39;59.04;100554.97;5031415;28;20069;-69
2022/10/15 05:21:19;;;;;;;52.58;22.90;;;;;;;10.35;59.05;100554.28;5032700;28;20037;-68
2022/10/15 05:23:49;;;;;;;55.88;26.25;;;;;;;10.08;59.80;100555.47;5014132;28;20160;-69
2022/10/15 05:26:47;;;;;;;59.15;25.75;;;;;;;10.34;59.19;100556.94;5031354;28;20033;-69
2022/10/15 05:29:14;;;;;;;60.42;26.95;;;;;;;10.32;59.07;100564.00;5032148;28;20044;-71
2022/10/15 05:31:39;;;;;;;64.97;27.60;;;;;;;10.23;59.49;100557.41;5031211;28;20044;-69
2022/10/15 05:34:12;;;;;;;53.75;26.25;;;;;;;10.32;59.34;100564.00;5029543;28;20021;-69
2022/10/15 05:36:50;;;;;;;62.72;25.63;;;;;;;10.37;59.00;100556.81;5031312;28;20497;-69
2022/10/15 05:39:15;;;;;;;67.45;27.30;;;;;;;10.25;59.34;100558.19;5037249;28;20024;-69
2022/10/15 05:41:43;;;;;;;55.22;24.08;;;;;;;10.36;58.62;100552.50;5039382;28;20032;-69
2022/10/15 05:44:08;;;;;;;57.55;25.90;;;;;;;10.45;58.63;100559.94;5027985;28;20033;-70
2022/10/15 05:46:34;;;;;;;55.72;23.52;;;;;;;10.42;59.02;100560.09;5035715;28;20058;-69
2022/10/15 05:48:59;;;;;;;54.65;26.42;;;;;;;10.34;58.74;100563.03;5018402;28;20068;-69
2022/10/15 05:51:27;;;;;;;61.72;27.38;;;;;;;10.41;58.79;100563.59;5032161;28;20036;-69
2022/10/15 05:53:59;;;;;;;55.35;25.20;;;;;;;10.37;59.01;100562.91;5028464;28;20526;-69
2022/10/15 05:56:26;;;;;;;60.40;26.25;;;;;;;10.42;58.55;100560.09;5028298;28;20044;-69
2022/10/15 05:58:52;;;;;;;60.97;26.75;;;;;;;10.28;59.10;100557.22;5029511;28;20056;-68
2022/10/15 06:01:20;;;;;;;62.95;27.90;;;;;;;10.21;59.04;100556.63;5043971;28;20021;-69
2022/10/15 06:03:50;;;;;;;49.95;23.35;;;;;;;10.25;59.11;100557.34;5037044;28;20498;-69
2022/10/15 06:06:24;;;;;;;59.28;25.38;;;;;;;10.22;59.20;100553.13;5030237;28;20030;-69
2022/10/15 06:08:49;;;;;;;63.67;27.15;;;;;;;10.21;59.37;100557.50;5028083;28;20041;-69
2022/10/15 06:11:16;;;;;;;70.65;26.27;;;;;;;10.19;59.45;100551.50;5031564;28;20026;-69
2022/10/15 06:13:43;;;;;;;58.08;24.50;;;;;;;10.15;59.11;100554.31;5029420;28;20061;-69
2022/10/15 06:16:09;;;;;;;61.65;26.25;;;;;;;10.07;59.66;100553.78;5030222;28;20041;-69
2022/10/15 06:18:36;;;;;;;51.47;23.52;;;;;;;10.24;58.99;100566.13;5030117;28;20040;-69
2022/10/15 06:21:02;;;;;;;52.90;24.70;;;;;;;10.29;59.04;100565.00;5037569;28;20449;-69
2022/10/15 06:23:28;;;;;;;54.35;22.90;;;;;;;10.28;58.96;100562.44;5029521;28;20916;-70
2022/10/15 06:25:53;;;;;;;59.08;25.83;;;;;;;10.23;59.10;100562.63;5027559;28;20045;-69
2022/10/15 06:28:19;;;;;;;66.88;25.13;;;;;;;10.25;59.17;100563.44;5029974;28;20037;-69
2022/10/15 06:30:44;;;;;;;60.13;26.05;;;;;;;10.21;59.29;100572.31;5031539;28;20036;-69
2022/10/15 06:33:10;;;;;;;60.95;25.35;;;;;;;10.28;59.11;100572.88;5028565;28;20045;-70
2022/10/15 06:35:35;;;;;;;60.35;25.45;;;;;;;10.25;59.01;100568.66;5030245;28;20033;-70
2022/10/15 06:38:02;;;;;;;61.22;25.67;;;;;;;10.07;59.67;100572.91;5030709;28;20049;-69
2022/10/15 06:40:28;;;;;;;45.50;22.20;;;;;;;10.39;58.95;100568.03;5036730;28;20646;-69
2022/10/15 06:42:53;;;;;;;52.75;24.33;;;;;;;10.34;58.80;100564.78;5031801;28;20068;-69
2022/10/15 06:45:19;;;;;;;53.47;23.58;;;;;;;10.55;58.45;100569.06;5015742;28;20041;-69
2022/10/15 06:47:44;;;;;;;57.00;23.85;;;;;;;10.58;58.66;100566.31;5031099;28;20037;-68
2022/10/15 06:50:11;;;;;;;60.85;24.23;;;;;;;10.58;58.89;100575.94;5030907;28;20034;-69
2022/10/15 06:52:36;;;;;;;52.25;23.77;;;;;;;10.42;58.75;100573.16;5028802;28;20040;-69
2022/10/15 06:55:03;;;;;;;59.13;24.30;;;;;;;10.57;58.42;100575.09;5030652;28;20037;-69
2022/10/15 06:57:29;;;;;;;52.95;23.13;;;;;;;10.73;58.40;100580.47;5027438;28;20049;-68
2022/10/15 06:59:55;;;;;;;63.20;25.63;;;;;;;10.75;57.93;100583.00;5038744;28;20040;-68
2022/10/15 07:02:20;;;;;;;60.42;25.40;;;;;;;10.83;57.89;100573.06;5027803;28;20037;-69
2022/10/15 07:04:46;;;;;;;56.40;24.77;;;;;;;10.83;57.83;100575.69;5039200;28;20037;-69
2022/10/15 07:07:16;;;;;;;48.47;22.52;;;;;;;10.67;57.72;100578.13;5029244;28;20029;-69
2022/10/15 07:09:42;;;;;;;54.63;23.67;;;;;;;10.55;58.51;100582.13;5025906;28;20413;-69
2022/10/15 07:12:07;;;;;;;49.28;21.52;;;;;;;10.63;58.30;100585.25;5026548;28;20286;-69
2022/10/15 07:14:33;;;;;;;53.78;22.55;;;;;;;10.72;58.45;100588.38;5034285;28;20044;-69
2022/10/15 07:16:58;;;;;;;53.75;21.60;;;;;;;10.64;58.20;100588.72;5015463;28;20056;-69
2022/10/15 07:19:25;;;;;;;58.50;23.20;;;;;;;10.75;57.89;100586.47;5015773;28;20044;-69
2022/10/15 07:21:50;;;;;;;51.13;23.55;;;;;;;10.78;57.91;100588.94;5016880;28;20036;-68
2022/10/15 07:24:16;;;;;;;50.33;22.15;;;;;;;10.72;58.13;100593.59;5024355;28;20584;-68
2022/10/15 07:26:42;;;;;;;56.20;21.65;;;;;;;10.76;57.93;100589.94;5030246;28;20183;-68
2022/10/15 07:29:07;;;;;;;51.55;22.05;;;;;;;10.74;58.11;100584.75;5029897;28;20048;-69
2022/10/15 07:31:33;;;;;;;52.75;20.45;;;;;;;10.88;58.01;100589.38;5011117;28;20049;-69
2022/10/15 07:33:58;;;;;;;52.65;22.58;;;;;;;10.94;57.67;100588.28;5030234;28;20124;-68
2022/10/15 07:36:25;;;;;;;49.05;21.88;;;;;;;10.79;58.21;100587.16;5026560;28;20052;-68
2022/10/15 07:38:51;;;;;;;48.85;21.25;;;;;;;10.97;57.82;100581.16;5027447;28;20072;-69
2022/10/15 07:41:16;;;;;;;47.40;22.05;;;;;;;10.94;57.96;100577.81;5035047;28;20687;-70
2022/10/15 07:43:42;;;;;;;59.90;22.58;;;;;;;11.11;57.33;100575.28;5031713;28;20518;-69
2022/10/15 07:46:07;;;;;;;57.42;23.80;;;;;;;10.86;57.86;100575.56;5039080;28;20328;-68
2022/10/15 07:48:33;;;;;;;46.85;20.83;;;;;;;10.87;57.55;100577.25;5029656;28;20535;-69
2022/10/15 07:51:05;;;;;;;51.25;22.45;;;;;;;10.98;57.55;100580.22;5015919;28;20032;-69
2022/10/15 07:53:30;;;;;;;;;;;;;;;11.14;57.24;100576.88;5026557;28;20057;-69
2022/10/15 07:56:05;;;;;;;51.03;21.15;;;;;;;11.09;57.13;100578.88;5030169;28;20310;-68
2022/10/15 07:58:33;;;;;;;48.47;22.42;;;;;;;11.21;56.60;100576.50;5029912;28;20076;-69
2022/10/15 08:01:06;;;;;;;49.40;22.88;;;;;;;11.12;57.01;100576.09;5028714;28;20123;-69
2022/10/15 08:03:33;;;;;;;44.15;20.63;;;;;;;11.21;56.61;100570.44;5036089;28;20473;-69
2022/10/15 08:05:59;;;;;;;45.47;22.05;;;;;;;10.97;57.26;100560.22;5030272;28;20310;-68
2022/10/15 08:08:27;;;;;;;48.80;21.58;;;;;;;11.38;56.58;100564.41;5025466;28;20075;-68
2022/10/15 08:10:52;;;;;;;59.53;23.63;;;;;;;11.70;55.85;100568.06;5029084;28;20038;-69
2022/10/15 08:13:19;;;;;;;51.13;22.23;;;;;;;12.06;56.10;100569.78;5034893;28;20533;-68
2022/10/15 08:15:47;;;;;;;52.13;22.95;;;;;;;12.22;54.57;100568.09;5029890;28;20033;-69
2022/10/15 08:18:13;;;;;;;43.42;21.38;;;;;;;12.38;54.48;100567.25;5026657;28;20107;-69
2022/10/15 08:20:38;;;;;;;42.63;19.80;;;;;;;12.35;53.91;100564.81;5031346;28;20087;-69
2022/10/15 08:23:05;;;;;;;47.03;21.65;;;;;;;12.16;53.92;100567.56;5029308;28;20053;-69
2022/10/15 08:25:31;;;;;;;50.60;21.60;;;;;;;12.13;54.54;100563.28;5027874;28;20076;-69
2022/10/15 08:27:57;;;;;;;52.25;21.40;;;;;;;12.18;54.62;100568.28;5028712;28;20076;-69
2022/10/15 08:30:23;;;;;;;49.10;20.67;;;;;;;12.15;54.16;100561.44;5012156;28;20450;-69
2022/10/15 08:32:49;;;;;;;44.65;20.25;;;;;;;12.48;54.70;100568.47;5027042;28;20068;-69
2022/10/15 08:35:14;;;;;;;46.65;20.40;;;;;;;12.34;54.26;100563.97;5028860;28;20017;-69
2022/10/15 08:37:40;;;;;;;43.33;20.10;;;;;;;12.34;54.58;100563.97;5030512;28;20494;-69
2022/10/15 08:40:06;;;;;;;45.88;21.50;;;;;;;12.25;53.75;100570.53;5028936;28;20045;-69
2022/10/15 08:42:38;;;;;;;47.30;20.50;;;;;;;12.86;53.48;100569.06;5027895;28;20041;-68
2022/10/15 08:45:33;;;;;;;43.05;20.58;;;;;;;12.85;52.73;100569.16;5032255;28;20038;-69
2022/10/15 08:48:10;;;;;;;46.58;21.10;;;;;;;12.58;53.15;100577.56;5035208;28;20053;-68
2022/10/15 08:50:57;;;;;;;40.75;20.90;;;;;;;12.75;53.04;100560.09;5020551;28;20036;-68
2022/10/15 08:53:24;;;;;;;48.20;19.90;;;;;;;12.82;52.98;100567.53;5029366;28;20242;-69
2022/10/15 08:55:58;;;;;;;46.05;21.08;;;;;;;13.11;52.52;100555.44;5031993;28;20029;-68
2022/10/15 08:58:52;;;;;;;45.67;21.38;;;;;;;13.05;52.24;100555.81;5036550;28;20071;-68
2022/10/15 09:01:49;;;;;;;44.53;19.70;;;;;;;13.40;51.05;100552.13;5037807;28;20053;-68
2022/10/15 09:04:52;;;;;;;46.00;20.38;;;;;;;14.14;50.08;100553.91;5030316;28;20064;-69
2022/10/15 09:07:43;;;;;;;40.42;19.40;;;;;;;14.67;49.00;100557.72;5028488;28;20099;-68
2022/10/15 09:10:17;;;;;;;42.75;20.00;;;;;;;15.37;47.88;100554.19;5025495;28;20064;-69
2022/10/15 09:13:09;;;;;;;42.40;21.00;;;;;;;15.27;46.64;100547.84;5030475;28;20045;-68
2022/10/15 09:15:39;;;;;;;;;;;;;;;14.72;46.65;100553.03;5030430;28;20030;-68
2022/10/15 09:18:15;;;;;;;34.17;18.63;;;;;;;14.14;48.43;100561.81;5030841;28;19923;-69
2022/10/15 09:20:41;;;;;;;39.95;20.88;;;;;;;14.07;48.91;100565.75;5032960;28;20041;-69
2022/10/15 09:23:18;;;;;;;40.45;20.90;;;;;;;14.69;48.68;100545.31;5031466;28;20045;-69
2022/10/15 09:25:50;;;;;;;37.10;20.10;;;;;;;15.49;46.62;100556.03;5038352;28;20033;-69
2022/10/15 09:28:20;;;;;;;35.53;18.90;;;;;;;15.17;46.32;100553.69;5038254;28;20053;-69
2022/10/15 09:30:55;;;;;;;44.30;19.63;;;;;;;14.18;48.54;100542.28;5030331;28;20045;-69
2022/10/15 09:33:21;;;;;;;39.38;21.20;;;;;;;14.01;49.69;100548.56;5029823;28;20048;-69
2022/10/15 09:35:52;;;;;;;41.67;20.90;;;;;;;15.02;48.42;100549.41;5022022;28;20034;-69
2022/10/15 09:38:45;;;;;;;36.65;19.40;;;;;;;15.74;45.72;100541.22;5027371;28;20122;-68
2022/10/15 09:41:32;;;;;;;35.60;19.83;;;;;;;15.62;46.00;100547.28;5046099;28;20045;-70
2022/10/15 09:44:00;;;;;;;36.63;18.40;;;;;;;15.38;45.75;100540.94;5021358;28;20060;-68
2022/10/15 09:46:29;;;;;;;35.83;18.35;;;;;;;15.27;46.39;100537.31;5030898;28;20029;-68
2022/10/15 09:49:17;;;;;;;36.55;19.65;;;;;;;15.72;45.95;100532.56;5031314;28;20433;-68
2022/10/15 09:52:01;;;;;;;44.65;18.17;;;;;;;16.69;43.55;100528.53;5030870;28;20033;-69
2022/10/15 09:54:29;;;;;;;32.45;18.08;;;;;;;16.93;44.94;100526.81;5021459;28;20039;-68
2022/10/15 09:56:56;;;;;;;31.40;17.88;;;;;;;17.11;42.69;100524.63;5031240;28;20037;-68
2022/10/15 09:59:24;;;;;;;35.83;19.58;;;;;;;16.16;44.44;100526.94;5031497;28;20600;-70
2022/10/15 10:02:00;;;;;;;35.17;17.70;;;;;;;16.83;44.47;100529.28;5038274;28;20580;-69
2022/10/15 10:04:31;;;;;;;38.53;20.27;;;;;;;16.69;44.67;100523.25;5037507;28;20128;-69
2022/10/15 10:07:00;;;;;;;32.20;17.73;;;;;;;17.00;43.38;100522.78;5022769;28;20041;-69
2022/10/15 10:09:51;;;;;;;31.83;17.83;;;;;;;16.83;43.73;100521.34;5019880;28;20556;-69
2022/10/15 10:12:24;;;;;;;36.25;18.08;;;;;;;16.12;44.22;100524.63;5029414;28;20564;-69
2022/10/15 10:14:56;;;;;;;34.47;17.73;;;;;;;16.74;44.30;100516.72;5029771;28;20045;-69
2022/10/15 10:17:24;;;;;;;33.95;17.48;;;;;;;17.38;44.00;100521.75;5028641;28;20040;-69
2022/10/15 10:20:08;;;;;;;31.17;17.05;;;;;;;17.49;43.25;100520.97;5032722;28;20060;-68
2022/10/15 10:22:53;;;;;;;32.22;16.60;;;;;;;17.06;42.78;100520.66;5026777;28;20469;-68
2022/10/15 10:25:41;;;;;;;32.42;16.58;;;;;;;16.03;44.67;100520.00;5028963;28;20045;-68
2022/10/15 10:28:13;;;;;;;32.92;16.00;;;;;;;16.02;45.35;100528.81;5020312;28;20053;-68
2022/10/15 10:30:48;;;;;;;30.50;17.52;;;;;;;15.53;45.89;100525.91;5031642;28;20049;-68
2022/10/15 10:33:16;;;;;;;33.45;17.70;;;;;;;15.88;46.21;100520.03;5028036;28;20231;-68
2022/10/15 10:35:49;;;;;;;30.90;17.90;;;;;;;16.13;46.26;100528.94;5030503;28;20409;-68
2022/10/15 10:38:35;;;;;;;29.42;17.95;;;;;;;15.63;45.92;100517.38;5029706;28;20053;-68
2022/10/15 10:41:09;;;;;;;31.95;18.13;;;;;;;15.73;46.38;100526.38;5036889;28;20090;-68
2022/10/15 10:43:36;;;;;;;33.80;17.30;;;;;;;14.98;47.63;100511.06;5028069;28;20099;-68
2022/10/15 10:46:13;;;;;;;33.65;18.85;;;;;;;14.98;48.20;100516.31;5029873;28;20048;-67
2022/10/15 10:48:47;;;;;;;31.08;16.83;;;;;;;15.36;47.78;100513.00;5028749;28;20033;-69
2022/10/15 10:51:25;;;;;;;34.30;18.40;;;;;;;15.72;48.44;100512.34;5028500;28;20041;-68
2022/10/15 10:54:07;;;;;;;35.00;18.27;;;;;;;16.32;45.98;100500.34;5031153;28;20060;-69
2022/10/15 10:56:37;;;;;;;33.30;17.23;;;;;;;16.74;45.10;100500.88;5026987;28;20064;-68
2022/10/15 10:59:39;;;;;;;31.88;17.70;;;;;;;16.52;44.67;100498.09;5031129;28;20089;-69
2022/10/15 11:02:11;;;;;;;32.72;17.17;;;;;;;16.28;45.94;100501.50;4987882;28;20046;-68
2022/10/15 11:04:38;;;;;;;34.00;17.63;;;;;;;16.22;45.83;100501.94;5029832;28;20036;-68
2022/10/15 11:07:24;;;;;;;31.92;18.42;;;;;;;16.18;45.89;100513.66;5031923;28;20045;-68
2022/10/15 11:10:20;;;;;;;34.45;17.30;;;;;;;15.47;47.18;100499.97;5037060;28;20551;-69
2022/10/15 11:13:13;;;;;;;27.27;17.13;;;;;;;14.36;50.02;100503.53;5029483;28;20409;-68
2022/10/15 11:15:55;;;;;;;28.30;15.75;;;;;;;14.08;49.74;100504.38;5030085;28;20033;-68
2022/10/15 11:18:30;;;;;;;23.58;13.98;;;;;;;14.15;49.26;100513.59;5024768;28;20087;-69
2022/10/15 11:21:13;;;;;;;24.30;15.48;;;;;;;14.39;49.08;100510.38;5033522;28;20033;-69
2022/10/15 11:23:50;;;;;;;23.17;14.73;;;;;;;13.96;50.21;100505.94;5029260;28;20095;-68
2022/10/15 11:26:21;;;;;;;25.38;15.82;;;;;;;14.14;49.39;100509.25;5030309;28;20088;-69
2022/10/15 11:29:05;;;;;;;27.73;16.55;;;;;;;14.25;49.16;100512.06;5031586;28;20049;-68
2022/10/15 11:31:54;;;;;;;22.92;14.25;;;;;;;14.40;49.44;100514.69;5027792;28;20041;-69